Time;durP1;ratioP1;P1;durP2;ratioP2;P2;SDS_P1;SDS_P2;PMS_P1;PMS_P2;Temp;Humidity;BMP_temperature;BMP_pressure;BME280_temperature;BME280_humidity;BME280_pressure;Samples;Min_cycle;Max_cycle;Signal;HPM_P1;HPM_P2
2023/05/07 00:01:38;;;;;;;0.47;0.47;;;14.40;99.90;;;;;;5056265;28;20036;-75
2023/05/07 00:04:04;;;;;;;0.00;0.00;;;14.50;99.90;;;;;;5061804;28;20433;-75
2023/05/07 00:06:30;;;;;;;0.63;0.63;;;14.60;99.90;;;;;;5043758;28;20028;-74
2023/05/07 00:08:57;;;;;;;0.00;0.00;;;14.60;99.90;;;;;;5062753;28;20078;-75
2023/05/07 00:11:23;;;;;;;0.10;0.10;;;14.70;99.90;;;;;;5042116;28;21091;-75
2023/05/07 00:13:49;;;;;;;0.95;0.88;;;14.40;99.90;;;;;;5057874;28;20101;-75
2023/05/07 00:16:15;;;;;;;0.10;0.10;;;14.40;99.90;;;;;;5065804;28;20037;-75
2023/05/07 00:18:40;;;;;;;0.10;0.10;;;14.70;99.90;;;;;;5066142;28;20021;-75
2023/05/07 00:21:06;;;;;;;0.00;0.00;;;14.80;99.90;;;;;;5065744;28;20028;-74
2023/05/07 00:23:32;;;;;;;0.00;0.00;;;14.80;99.90;;;;;;5064760;28;20119;-74
2023/05/07 00:25:57;;;;;;;0.10;0.10;;;14.60;99.90;;;;;;5065639;28;20021;-74
2023/05/07 00:28:23;;;;;;;0.10;0.10;;;14.30;99.90;;;;;;5051682;28;20028;-74
2023/05/07 00:30:49;;;;;;;0.10;0.10;;;14.10;99.90;;;;;;5065451;28;20379;-75
2023/05/07 00:33:14;;;;;;;0.17;0.17;;;14.30;99.90;;;;;;5064835;28;20043;-75
2023/05/07 00:35:40;;;;;;;0.30;0.30;;;14.40;99.90;;;;;;5065478;28;20036;-75
2023/05/07 00:38:06;;;;;;;2.37;0.50;;;14.20;99.90;;;;;;5065180;28;20025;-74
2023/05/07 00:40:31;;;;;;;0.20;0.20;;;14.20;99.90;;;;;;5065301;28;20513;-74
2023/05/07 00:42:57;;;;;;;0.10;0.10;;;14.10;99.90;;;;;;5064726;28;20529;-75
2023/05/07 00:45:27;;;;;;;0.00;0.00;;;14.30;99.90;;;;;;5064692;28;20033;-74
2023/05/07 00:47:55;;;;;;;0.10;0.10;;;14.40;99.90;;;;;;5059212;28;20025;-75
2023/05/07 00:50:22;;;;;;;0.10;0.10;;;14.20;99.90;;;;;;5072268;28;20083;-75
2023/05/07 00:52:47;;;;;;;1.45;0.63;;;14.20;99.90;;;;;;5068708;28;20032;-75
2023/05/07 00:55:14;;;;;;;0.20;0.20;;;14.50;99.90;;;;;;5067410;28;20056;-76
2023/05/07 00:57:41;;;;;;;0.20;0.20;;;14.40;99.90;;;;;;5064802;28;20104;-76
2023/05/07 01:00:08;;;;;;;0.00;0.00;;;14.50;99.90;;;;;;5064901;28;21111;-74
2023/05/07 01:02:35;;;;;;;19.08;0.52;;;14.60;99.90;;;;;;5064211;28;20025;-75
2023/05/07 01:05:05;;;;;;;0.10;0.10;;;14.40;99.90;;;;;;5046928;28;20039;-75
2023/05/07 01:07:32;;;;;;;0.10;0.10;;;14.50;99.90;;;;;;5065298;28;20024;-75
2023/05/07 01:09:58;;;;;;;;;;;14.60;99.90;;;;;;5065501;28;20024;-75
2023/05/07 01:12:25;;;;;;;0.52;0.52;;;14.60;99.90;;;;;;5064707;28;20400;-75
2023/05/07 01:14:51;;;;;;;0.10;0.10;;;14.40;99.90;;;;;;5053139;28;20047;-75
2023/05/07 01:17:17;;;;;;;0.10;0.10;;;14.30;99.90;;;;;;5065003;28;20024;-75
2023/05/07 01:19:44;;;;;;;0.10;0.10;;;14.40;99.90;;;;;;5062760;28;20032;-75
2023/05/07 01:22:14;;;;;;;0.10;0.10;;;14.20;99.90;;;;;;5064452;28;20027;-75
2023/05/07 01:24:41;;;;;;;0.10;0.10;;;14.40;99.90;;;;;;5064195;28;20032;-75
2023/05/07 01:27:06;;;;;;;0.00;0.00;;;14.40;99.90;;;;;;5071336;28;20016;-75
2023/05/07 01:29:32;;;;;;;0.20;0.20;;;14.30;99.90;;;;;;5064395;28;20043;-75
2023/05/07 01:32:00;;;;;;;0.10;0.10;;;14.30;99.90;;;;;;5064388;28;20036;-75
2023/05/07 01:34:30;;;;;;;0.10;0.10;;;14.30;99.90;;;;;;5066461;28;20111;-75
2023/05/07 01:36:57;;;;;;;0.47;0.32;;;14.30;99.90;;;;;;5069854;28;20048;-75
2023/05/07 01:39:26;;;;;;;0.30;0.30;;;14.40;99.90;;;;;;5067535;28;20024;-76
2023/05/07 01:41:56;;;;;;;0.28;0.28;;;14.30;99.90;;;;;;5064423;28;20017;-75
2023/05/07 01:44:22;;;;;;;0.05;0.05;;;14.20;99.90;;;;;;5063887;28;20060;-75
2023/05/07 01:46:48;;;;;;;0.22;0.22;;;14.20;99.90;;;;;;5064059;28;20025;-76
2023/05/07 01:49:15;;;;;;;0.20;0.20;;;14.40;99.90;;;;;;5063994;28;20138;-75
2023/05/07 01:51:41;;;;;;;0.13;0.13;;;14.50;99.90;;;;;;5063634;28;20016;-75
2023/05/07 01:54:08;;;;;;;3.10;0.38;;;14.70;99.90;;;;;;5063427;28;20040;-75
2023/05/07 01:56:34;;;;;;;0.10;0.10;;;14.60;99.90;;;;;;5063202;28;20029;-75
2023/05/07 01:59:02;;;;;;;0.00;0.00;;;14.70;99.90;;;;;;5064041;28;20368;-76
2023/05/07 02:01:27;;;;;;;1.45;0.77;;;14.80;99.90;;;;;;5045263;28;20024;-75
2023/05/07 02:03:53;;;;;;;0.30;0.30;;;14.90;99.90;;;;;;5063608;28;20028;-76
2023/05/07 02:06:19;;;;;;;0.67;0.67;;;14.70;99.90;;;;;;5063970;28;20131;-75
2023/05/07 02:08:46;;;;;;;0.10;0.10;;;14.70;99.90;;;;;;5063818;28;20044;-77
2023/05/07 02:11:11;;;;;;;0.10;0.10;;;14.60;99.90;;;;;;5063569;28;20021;-76
2023/05/07 02:13:37;;;;;;;0.17;0.17;;;14.60;99.90;;;;;;5063557;28;20045;-75
2023/05/07 02:16:03;;;;;;;0.10;0.10;;;14.70;99.90;;;;;;5045800;28;20148;-76
2023/05/07 02:18:29;;;;;;;0.10;0.10;;;14.60;99.90;;;;;;5060434;28;20032;-75
2023/05/07 02:20:55;;;;;;;0.10;0.10;;;14.70;99.90;;;;;;5053573;28;20025;-76
2023/05/07 02:23:21;;;;;;;0.87;0.87;;;14.70;99.90;;;;;;5063899;28;20051;-75
2023/05/07 02:25:46;;;;;;;0.50;0.50;;;14.80;99.90;;;;;;5062878;28;20028;-75
2023/05/07 02:28:12;;;;;;;0.10;0.10;;;14.60;99.90;;;;;;5045729;28;20086;-75
2023/05/07 02:30:39;;;;;;;0.30;0.30;;;14.70;99.90;;;;;;5044940;28;20027;-75
2023/05/07 02:33:06;;;;;;;0.30;0.30;;;14.70;99.90;;;;;;5035288;28;20127;-76
2023/05/07 02:35:31;;;;;;;0.47;0.30;;;14.80;99.90;;;;;;5062928;28;20021;-76
2023/05/07 02:37:57;;;;;;;0.20;0.20;;;14.80;99.90;;;;;;5044733;28;20786;-75
2023/05/07 02:40:23;;;;;;;0.20;0.20;;;14.60;99.90;;;;;;5044078;28;20493;-75
2023/05/07 02:42:48;;;;;;;1.97;0.30;;;14.50;99.90;;;;;;5058101;28;20090;-75
2023/05/07 02:45:14;;;;;;;0.10;0.10;;;14.70;99.90;;;;;;5062630;28;20903;-75
2023/05/07 02:47:40;;;;;;;0.10;0.10;;;14.70;99.90;;;;;;5044943;28;20039;-76
2023/05/07 02:50:07;;;;;;;0.23;0.23;;;14.50;99.90;;;;;;5063167;28;20102;-75
2023/05/07 02:52:32;;;;;;;0.10;0.10;;;14.50;99.90;;;;;;5063086;28;20294;-76
2023/05/07 02:54:58;;;;;;;0.23;0.23;;;14.60;99.90;;;;;;5067991;28;20036;-76
2023/05/07 02:57:24;;;;;;;0.10;0.10;;;14.70;99.90;;;;;;5062871;28;20068;-75
2023/05/07 02:59:50;;;;;;;0.10;0.10;;;14.70;99.90;;;;;;5061914;28;20056;-75
2023/05/07 03:02:16;;;;;;;0.20;0.20;;;14.70;99.90;;;;;;5046480;28;20162;-75
2023/05/07 03:04:42;;;;;;;0.10;0.10;;;14.70;99.90;;;;;;5062919;28;20279;-75
2023/05/07 03:07:07;;;;;;;0.00;0.00;;;14.90;99.90;;;;;;5063578;28;20476;-75
2023/05/07 03:09:33;;;;;;;0.13;0.13;;;14.80;99.90;;;;;;5062623;28;20024;-74
2023/05/07 03:11:59;;;;;;;0.10;0.10;;;14.80;99.90;;;;;;5062822;28;20024;-75
2023/05/07 03:14:25;;;;;;;0.17;0.17;;;14.70;99.90;;;;;;5062315;28;20048;-75
2023/05/07 03:16:50;;;;;;;0.67;0.67;;;14.60;99.90;;;;;;5062314;28;20024;-75
2023/05/07 03:19:16;;;;;;;0.60;0.60;;;14.60;99.90;;;;;;5062819;28;20749;-74
2023/05/07 03:21:42;;;;;;;0.00;0.00;;;14.60;99.90;;;;;;5045291;28;20032;-75
2023/05/07 03:24:08;;;;;;;0.10;0.10;;;14.70;99.90;;;;;;5062313;28;20056;-75
2023/05/07 03:26:33;;;;;;;0.15;0.15;;;14.70;99.90;;;;;;5044535;28;20510;-75
2023/05/07 03:28:59;;;;;;;0.20;0.20;;;14.70;99.90;;;;;;5062700;28;20801;-74
2023/05/07 03:31:25;;;;;;;0.50;0.50;;;14.70;99.90;;;;;;5044591;28;20025;-74
2023/05/07 03:33:56;;;;;;;0.47;0.47;;;14.70;99.90;;;;;;5065164;28;20063;-75
2023/05/07 03:36:22;;;;;;;1.30;1.20;;;14.60;99.90;;;;;;5062903;28;20104;-75
2023/05/07 03:38:48;;;;;;;0.57;0.57;;;14.60;99.90;;;;;;5044147;28;20028;-75
2023/05/07 03:41:14;;;;;;;0.65;0.65;;;14.70;99.90;;;;;;5062672;28;20255;-75
2023/05/07 03:43:40;;;;;;;0.33;0.33;;;14.70;99.90;;;;;;5060850;28;20035;-75
2023/05/07 03:46:06;;;;;;;0.80;0.80;;;14.60;99.90;;;;;;5066719;28;20032;-75
2023/05/07 03:48:32;;;;;;;0.60;0.60;;;14.50;99.90;;;;;;5065490;28;20020;-75
2023/05/07 03:50:58;;;;;;;0.20;0.20;;;14.50;99.90;;;;;;5054094;28;21139;-74
2023/05/07 03:53:24;;;;;;;1.95;0.98;;;14.50;99.90;;;;;;5066013;28;20072;-75
2023/05/07 03:55:50;;;;;;;0.43;0.43;;;14.50;99.90;;;;;;5066588;28;20071;-75
2023/05/07 03:58:16;;;;;;;1.03;0.67;;;14.50;99.90;;;;;;5066375;28;20127;-75
2023/05/07 04:00:42;;;;;;;0.13;0.13;;;14.40;99.90;;;;;;5053867;28;20013;-75
2023/05/07 04:03:08;;;;;;;0.30;0.30;;;14.50;99.90;;;;;;5066001;28;20038;-75
2023/05/07 04:05:33;;;;;;;0.47;0.47;;;14.40;99.90;;;;;;5065725;28;20047;-75
2023/05/07 04:08:00;;;;;;;0.10;0.10;;;14.40;99.90;;;;;;5066462;28;20703;-75
2023/05/07 04:10:25;;;;;;;3.00;1.25;;;14.30;99.90;;;;;;5065406;28;20515;-75
2023/05/07 04:12:51;;;;;;;0.20;0.20;;;14.30;99.90;;;;;;5066065;28;20055;-75
2023/05/07 04:15:17;;;;;;;0.10;0.10;;;14.30;99.90;;;;;;5041842;28;20452;-74
2023/05/07 04:17:43;;;;;;;0.20;0.20;;;14.30;99.90;;;;;;5066108;28;20081;-75
2023/05/07 04:20:15;;;;;;;0.17;0.17;;;14.20;99.90;;;;;;5053334;28;20036;-75
2023/05/07 04:22:41;;;;;;;0.20;0.20;;;14.30;99.90;;;;;;5065410;28;20052;-75
2023/05/07 04:25:09;;;;;;;0.20;0.20;;;14.30;99.90;;;;;;5065729;28;20096;-74
2023/05/07 04:27:35;;;;;;;0.52;0.52;;;14.20;99.90;;;;;;5065284;28;20078;-75
2023/05/07 04:30:02;;;;;;;0.33;0.30;;;14.20;99.90;;;;;;5065345;28;20024;-76
2023/05/07 04:32:28;;;;;;;0.22;0.22;;;14.20;99.90;;;;;;5065332;28;20055;-75
2023/05/07 04:34:55;;;;;;;0.50;0.50;;;14.30;99.90;;;;;;5065044;28;20403;-75
2023/05/07 04:37:21;;;;;;;0.25;0.25;;;14.20;99.90;;;;;;5065561;28;20721;-75
2023/05/07 04:39:47;;;;;;;0.52;0.47;;;14.20;99.90;;;;;;5064794;28;20128;-74
2023/05/07 04:42:18;;;;;;;0.38;0.38;;;14.00;99.90;;;;;;5065136;28;20143;-75
2023/05/07 04:44:45;;;;;;;0.17;0.17;;;14.10;99.90;;;;;;5062160;28;20029;-74
2023/05/07 04:47:11;;;;;;;0.52;0.52;;;14.20;99.90;;;;;;5065136;28;20025;-76
2023/05/07 04:49:38;;;;;;;0.30;0.30;;;14.20;99.90;;;;;;5065019;28;20021;-74
2023/05/07 04:52:04;;;;;;;;;;;14.30;99.90;;;;;;5065749;28;20632;-76
2023/05/07 04:54:30;;;;;;;0.40;0.40;;;14.20;99.90;;;;;;5047699;28;19920;-76
2023/05/07 04:56:56;;;;;;;0.30;0.30;;;14.20;99.90;;;;;;5068061;28;20044;-75
2023/05/07 04:59:22;;;;;;;0.10;0.10;;;14.30;99.90;;;;;;5064504;28;20083;-76
2023/05/07 05:01:47;;;;;;;0.10;0.10;;;14.30;99.90;;;;;;5047899;28;20115;-75
2023/05/07 05:04:13;;;;;;;0.10;0.10;;;14.40;99.90;;;;;;5064444;28;20024;-76
2023/05/07 05:06:39;;;;;;;0.10;0.10;;;14.30;99.90;;;;;;5053459;28;20115;-77
2023/05/07 05:09:05;;;;;;;0.30;0.30;;;14.20;99.90;;;;;;5059559;28;20922;-76
2023/05/07 05:11:31;;;;;;;0.10;0.10;;;14.30;99.90;;;;;;5057639;28;20029;-76
2023/05/07 05:13:58;;;;;;;0.10;0.10;;;14.30;99.90;;;;;;5064862;28;20036;-75
2023/05/07 05:16:24;;;;;;;0.10;0.10;;;14.40;99.90;;;;;;5064826;28;20071;-75
2023/05/07 05:18:51;;;;;;;0.13;0.13;;;14.40;99.90;;;;;;5064700;28;20079;-75
2023/05/07 05:21:17;;;;;;;0.30;0.30;;;14.30;99.90;;;;;;5046595;28;20399;-75
2023/05/07 05:23:43;;;;;;;0.85;0.77;;;14.50;99.90;;;;;;5044350;28;20037;-76
2023/05/07 05:26:09;;;;;;;0.10;0.10;;;14.50;99.90;;;;;;5064619;28;20021;-76
2023/05/07 05:28:34;;;;;;;0.52;0.52;;;14.40;99.90;;;;;;5064168;28;20777;-75
2023/05/07 05:31:00;;;;;;;0.10;0.10;;;14.30;99.90;;;;;;5065049;28;20113;-77
2023/05/07 05:33:26;;;;;;;0.83;0.23;;;14.30;99.90;;;;;;5046054;28;20047;-75
2023/05/07 05:35:53;;;;;;;0.50;0.50;;;14.40;99.90;;;;;;5042476;28;20029;-76
2023/05/07 05:38:18;;;;;;;;;;;14.30;99.90;;;;;;5041266;28;20134;-76
2023/05/07 05:40:44;;;;;;;0.37;0.30;;;14.30;99.90;;;;;;5064318;28;20432;-75
2023/05/07 05:43:10;;;;;;;0.83;0.83;;;14.20;99.90;;;;;;5061809;28;20108;-75
2023/05/07 05:45:35;;;;;;;0.27;0.27;;;14.30;99.90;;;;;;5064068;28;20120;-77
2023/05/07 05:48:01;;;;;;;0.57;0.57;;;14.20;99.90;;;;;;5064004;28;20024;-76
2023/05/07 05:50:27;;;;;;;0.33;0.33;;;14.20;99.90;;;;;;5063581;28;20058;-75
2023/05/07 05:52:52;;;;;;;0.27;0.27;;;14.20;99.90;;;;;;5062246;28;20071;-75
2023/05/07 05:55:18;;;;;;;1.20;1.10;;;14.30;99.90;;;;;;5062253;28;20139;-75
2023/05/07 05:57:44;;;;;;;0.93;0.87;;;14.20;99.90;;;;;;5063666;28;20456;-75
2023/05/07 06:00:10;;;;;;;0.23;0.23;;;14.10;99.90;;;;;;5063041;28;20053;-76
2023/05/07 06:02:36;;;;;;;0.32;0.32;;;14.20;99.90;;;;;;5063177;28;20044;-77
2023/05/07 06:05:01;;;;;;;0.20;0.20;;;14.30;99.90;;;;;;5063262;28;20035;-76
2023/05/07 06:07:27;;;;;;;0.20;0.20;;;14.30;99.90;;;;;;5062553;28;20153;-75
2023/05/07 06:09:53;;;;;;;0.40;0.40;;;14.30;99.90;;;;;;5063417;28;20111;-76
2023/05/07 06:12:18;;;;;;;0.20;0.20;;;14.30;99.90;;;;;;5065642;28;20024;-76
2023/05/07 06:14:44;;;;;;;0.37;0.37;;;14.30;99.90;;;;;;5063288;28;20028;-75
2023/05/07 06:17:10;;;;;;;0.57;0.40;;;14.30;99.90;;;;;;5045585;28;20115;-75
2023/05/07 06:19:35;;;;;;;0.30;0.30;;;14.30;99.90;;;;;;5063206;28;20198;-76
2023/05/07 06:22:02;;;;;;;0.37;0.37;;;14.40;99.90;;;;;;5063248;28;20610;-77
2023/05/07 06:24:28;;;;;;;0.25;0.25;;;14.30;99.90;;;;;;5062686;28;20036;-75
2023/05/07 06:26:54;;;;;;;1.57;1.33;;;14.30;99.90;;;;;;5063979;28;20029;-76
2023/05/07 06:29:20;;;;;;;0.10;0.10;;;14.30;99.90;;;;;;5062802;28;20031;-75
2023/05/07 06:31:45;;;;;;;0.00;0.00;;;14.40;99.90;;;;;;5063466;28;20080;-76
2023/05/07 06:34:14;;;;;;;0.10;0.10;;;14.40;99.90;;;;;;5063097;28;20032;-76
2023/05/07 06:36:40;;;;;;;0.17;0.17;;;14.30;99.90;;;;;;5064335;28;20029;-75
2023/05/07 06:39:06;;;;;;;6.70;1.02;;;14.40;99.90;;;;;;5063332;28;20029;-75
2023/05/07 06:41:32;;;;;;;0.40;0.40;;;14.20;99.90;;;;;;5063221;28;20078;-76
2023/05/07 06:43:57;;;;;;;0.47;0.47;;;14.20;99.90;;;;;;5042255;28;20056;-75
2023/05/07 06:46:23;;;;;;;0.30;0.30;;;14.20;99.90;;;;;;5063069;28;20058;-75
2023/05/07 06:48:49;;;;;;;0.53;0.53;;;14.30;99.90;;;;;;5063095;28;20029;-76
2023/05/07 06:51:15;;;;;;;0.27;0.20;;;14.40;99.90;;;;;;5062661;28;20023;-74
2023/05/07 06:53:40;;;;;;;0.10;0.10;;;14.60;99.90;;;;;;5057982;28;20044;-75
2023/05/07 06:56:06;;;;;;;0.20;0.20;;;14.70;99.90;;;;;;5062497;28;20060;-75
2023/05/07 06:58:32;;;;;;;0.37;0.37;;;14.90;99.90;;;;;;5062226;28;20044;-75
2023/05/07 07:00:58;;;;;;;0.20;0.20;;;15.00;99.90;;;;;;5062628;28;20025;-75
2023/05/07 07:03:23;;;;;;;6.10;1.23;;;15.30;99.90;;;;;;5061920;28;20029;-76
2023/05/07 07:05:52;;;;;;;0.10;0.10;;;15.40;99.90;;;;;;5062501;28;20123;-76
2023/05/07 07:08:20;;;;;;;0.03;0.03;;;15.50;99.90;;;;;;5062328;28;20028;-75
2023/05/07 07:10:46;;;;;;;0.20;0.20;;;15.60;99.90;;;;;;5057638;28;20029;-74
2023/05/07 07:13:12;;;;;;;0.00;0.00;;;15.60;99.90;;;;;;5044548;28;20610;-76
2023/05/07 07:15:38;;;;;;;1.03;0.60;;;15.80;99.90;;;;;;5063710;28;20029;-75
2023/05/07 07:18:04;;;;;;;0.10;0.10;;;15.90;99.90;;;;;;5056904;28;20029;-76
2023/05/07 07:20:30;;;;;;;0.20;0.20;;;16.00;99.90;;;;;;5043560;28;20036;-75
2023/05/07 07:22:55;;;;;;;0.60;0.60;;;16.40;99.90;;;;;;5054802;28;20032;-77
2023/05/07 07:25:21;;;;;;;0.13;0.13;;;16.60;99.90;;;;;;5061435;28;20450;-75
2023/05/07 07:27:47;;;;;;;0.20;0.20;;;16.70;99.90;;;;;;5062223;28;20028;-75
2023/05/07 07:30:13;;;;;;;0.20;0.20;;;16.70;99.90;;;;;;5062471;28;21600;-75
2023/05/07 07:32:38;;;;;;;0.17;0.17;;;17.00;99.90;;;;;;5050915;28;20064;-76
2023/05/07 07:35:05;;;;;;;8.23;1.97;;;17.30;99.90;;;;;;5063584;28;20020;-75
2023/05/07 07:37:30;;;;;;;0.93;0.93;;;17.40;99.90;;;;;;5062218;28;20032;-76
2023/05/07 07:39:56;;;;;;;5.43;2.20;;;17.70;99.90;;;;;;5043853;28;20945;-75
2023/05/07 07:42:22;;;;;;;0.00;0.00;;;18.40;99.90;;;;;;5062208;28;20032;-76
2023/05/07 07:44:48;;;;;;;2.55;1.48;;;19.70;99.90;;;;;;5059437;28;20024;-76
2023/05/07 07:47:14;;;;;;;3.90;1.80;;;18.80;99.90;;;;;;5062263;28;20079;-76
2023/05/07 07:49:40;;;;;;;0.33;0.33;;;18.40;99.90;;;;;;5047636;28;20153;-75
2023/05/07 07:52:05;;;;;;;0.90;0.80;;;17.70;99.90;;;;;;5066304;28;20254;-76
2023/05/07 07:54:31;;;;;;;0.10;0.10;;;17.70;99.90;;;;;;5061504;28;20028;-76
2023/05/07 07:56:57;;;;;;;0.10;0.07;;;17.80;99.90;;;;;;5066105;28;20516;-75
2023/05/07 07:59:23;;;;;;;0.20;0.20;;;17.50;99.90;;;;;;5055684;28;20132;-75
2023/05/07 08:01:50;;;;;;;0.10;0.10;;;17.70;99.90;;;;;;5053734;28;20097;-77
2023/05/07 08:04:15;;;;;;;;;;;18.10;99.90;;;;;;5058441;28;20565;-75
2023/05/07 08:06:42;;;;;;;0.20;0.20;;;17.70;99.90;;;;;;5037187;28;19908;-76
2023/05/07 08:09:08;;;;;;;0.60;0.60;;;17.40;99.90;;;;;;5057665;28;20024;-75
2023/05/07 08:11:34;;;;;;;1.35;0.98;;;17.40;99.90;;;;;;5055098;28;20086;-75
2023/05/07 08:14:00;;;;;;;1.85;0.70;;;17.30;99.90;;;;;;5057162;28;20045;-75
2023/05/07 08:16:25;;;;;;;0.40;0.40;;;17.70;99.90;;;;;;5066322;28;20020;-75
2023/05/07 08:18:51;;;;;;;0.20;0.20;;;18.20;99.90;;;;;;5058097;28;20035;-75
2023/05/07 08:21:17;;;;;;;0.20;0.20;;;18.40;99.90;;;;;;5061916;28;20554;-75
2023/05/07 08:23:43;;;;;;;0.40;0.40;;;18.50;99.90;;;;;;5060978;28;20021;-75
2023/05/07 08:26:09;;;;;;;0.37;0.33;;;18.40;99.90;;;;;;5062169;28;20028;-76
2023/05/07 08:28:35;;;;;;;1.27;0.65;;;18.40;99.90;;;;;;5061924;28;20032;-75
2023/05/07 08:31:00;;;;;;;0.52;0.52;;;18.20;99.90;;;;;;5036226;28;20032;-77
2023/05/07 08:33:27;;;;;;;0.13;0.13;;;18.90;99.90;;;;;;5056779;28;20036;-75
2023/05/07 08:35:52;;;;;;;0.17;0.17;;;19.00;99.90;;;;;;5065506;28;20380;-75
2023/05/07 08:38:18;;;;;;;0.00;0.00;;;19.00;99.90;;;;;;5065226;28;20884;-76
2023/05/07 08:40:44;;;;;;;1.40;0.83;;;19.00;99.90;;;;;;5064804;28;20543;-76
2023/05/07 08:43:13;;;;;;;0.63;0.50;;;19.30;99.90;;;;;;5045611;28;20029;-76
2023/05/07 08:45:40;;;;;;;3.50;0.95;;;19.10;99.90;;;;;;5063528;28;20027;-76
2023/05/07 08:48:14;;;;;;;0.00;0.00;;;18.60;99.90;;;;;;5064255;28;20021;-76
2023/05/07 08:50:39;;;;;;;0.00;0.00;;;18.20;99.90;;;;;;5063650;28;20032;-76
2023/05/07 08:53:05;;;;;;;0.20;0.20;;;18.20;99.90;;;;;;5061294;28;20044;-77
2023/05/07 08:55:31;;;;;;;0.30;0.30;;;18.60;99.90;;;;;;5055115;28;20559;-77
2023/05/07 08:57:57;;;;;;;0.80;0.77;;;19.00;99.90;;;;;;5057095;28;20121;-76
2023/05/07 09:00:23;;;;;;;0.30;0.30;;;19.50;99.90;;;;;;5064562;28;20501;-76
2023/05/07 09:02:48;;;;;;;2.33;0.57;;;19.30;99.90;;;;;;5064058;28;20513;-77
2023/05/07 09:05:14;;;;;;;0.20;0.20;;;19.10;99.90;;;;;;5064573;28;20032;-76
2023/05/07 09:07:40;;;;;;;0.53;0.53;;;19.00;99.90;;;;;;5064853;28;20016;-77
2023/05/07 09:10:06;;;;;;;0.40;0.30;;;18.20;99.90;;;;;;5046257;28;20082;-76
2023/05/07 09:12:32;;;;;;;0.10;0.10;;;18.00;99.90;;;;;;5064154;28;20040;-76
2023/05/07 09:14:59;;;;;;;0.07;0.07;;;18.20;99.90;;;;;;5065146;28;20702;-76
2023/05/07 09:17:25;;;;;;;1.10;0.75;;;18.20;99.90;;;;;;5068678;28;20013;-76
2023/05/07 09:19:51;;;;;;;3.77;1.23;;;18.20;99.90;;;;;;5061114;28;20033;-76
2023/05/07 09:22:16;;;;;;;0.47;0.37;;;18.10;99.90;;;;;;5064364;28;20028;-76
2023/05/07 09:24:48;;;;;;;0.13;0.13;;;17.80;99.90;;;;;;5063405;28;20033;-75
2023/05/07 09:27:14;;;;;;;0.32;0.32;;;17.50;99.90;;;;;;5062515;28;20029;-75
2023/05/07 09:29:40;;;;;;;0.00;0.00;;;17.00;99.90;;;;;;5056072;28;20021;-75
2023/05/07 09:32:07;;;;;;;0.20;0.20;;;16.70;99.90;;;;;;5064526;28;20032;-74
2023/05/07 09:34:34;;;;;;;2.05;0.25;;;16.70;99.90;;;;;;5045605;28;20075;-76
2023/05/07 09:37:04;;;;;;;0.35;0.35;;;16.50;99.90;;;;;;5046472;28;20032;-75
2023/05/07 09:39:44;;;;;;;0.20;0.20;;;16.80;99.90;;;;;;5045926;28;20967;-75
2023/05/07 09:42:11;;;;;;;0.20;0.20;;;17.00;99.90;;;;;;5059436;28;20024;-77
2023/05/07 09:44:37;;;;;;;0.65;0.65;;;17.40;99.90;;;;;;5049173;28;20075;-75
2023/05/07 09:47:05;;;;;;;0.68;0.68;;;18.00;99.90;;;;;;5046129;28;20033;-76
2023/05/07 09:49:34;;;;;;;2.70;0.80;;;18.60;99.90;;;;;;5047232;28;20078;-77
2023/05/07 09:52:02;;;;;;;1.77;0.85;;;18.60;99.90;;;;;;5052358;28;20040;-77
2023/05/07 09:54:29;;;;;;;1.00;0.43;;;18.50;99.90;;;;;;5041890;28;20067;-76
2023/05/07 09:56:55;;;;;;;0.10;0.10;;;18.70;99.90;;;;;;5040894;28;20883;-75
2023/05/07 09:59:22;;;;;;;0.00;0.00;;;18.80;99.90;;;;;;5030936;28;20139;-76
2023/05/07 10:01:49;;;;;;;0.77;0.55;;;18.90;99.90;;;;;;5061764;28;20396;-75
2023/05/07 10:04:16;;;;;;;0.10;0.10;;;19.40;99.90;;;;;;5045330;28;20028;-76
2023/05/07 10:06:44;;;;;;;0.10;0.10;;;22.80;99.20;;;;;;5046047;28;20064;-76
2023/05/07 10:09:11;;;;;;;0.10;0.10;;;25.50;90.00;;;;;;5062452;28;20987;-77
2023/05/07 10:11:36;;;;;;;;;;;22.90;88.90;;;;;;5064533;28;20028;-76
2023/05/07 10:14:05;;;;;;;1.35;0.95;;;21.50;91.90;;;;;;5063409;28;20536;-76
2023/05/07 10:16:35;;;;;;;1.75;0.70;;;21.50;92.90;;;;;;5045243;28;20178;-76
2023/05/07 10:19:03;;;;;;;0.08;0.08;;;20.50;93.70;;;;;;5060285;28;20033;-76
2023/05/07 10:21:30;;;;;;;0.15;0.15;;;19.40;94.70;;;;;;5039758;28;20033;-76
2023/05/07 10:24:05;;;;;;;0.50;0.40;;;18.80;96.80;;;;;;5059849;28;20464;-78
2023/05/07 10:26:33;;;;;;;0.30;0.30;;;18.30;99.90;;;;;;5037792;28;20064;-75
2023/05/07 10:29:18;;;;;;;0.63;0.63;;;18.10;99.90;;;;;;5051928;28;20031;-76
2023/05/07 10:32:00;;;;;;;2.17;0.35;;;17.90;99.90;;;;;;5030410;28;20025;-76
2023/05/07 10:34:32;;;;;;;0.10;0.10;;;18.40;99.90;;;;;;5049438;28;20029;-77
2023/05/07 10:36:58;;;;;;;0.13;0.13;;;18.90;99.90;;;;;;5054016;28;20021;-78
2023/05/07 10:39:24;;;;;;;0.05;0.05;;;19.50;99.90;;;;;;5051877;28;20032;-76
2023/05/07 10:41:50;;;;;;;0.00;0.00;;;19.90;98.80;;;;;;5060293;28;20564;-79
2023/05/07 10:44:29;;;;;;;0.03;0.03;;;20.50;96.90;;;;;;5042399;28;20058;-77
2023/05/07 10:47:18;;;;;;;0.13;0.13;;;21.20;96.60;;;;;;5051704;28;20033;-78
2023/05/07 10:49:44;;;;;;;0.00;0.00;;;21.30;92.50;;;;;;5061520;28;20017;-76
2023/05/07 10:52:25;;;;;;;0.10;0.05;;;21.90;93.40;;;;;;5053268;28;20036;-75
2023/05/07 10:55:24;;;;;;;0.20;0.20;;;22.40;92.20;;;;;;5049460;28;20123;-75
2023/05/07 10:57:50;;;;;;;0.00;0.00;;;22.80;92.30;;;;;;5061586;28;20024;-78
2023/05/07 11:00:25;;;;;;;1.08;0.45;;;21.90;91.60;;;;;;5058560;28;20059;-75
2023/05/07 11:03:00;;;;;;;0.10;0.10;;;21.10;92.70;;;;;;5056472;28;20575;-78
2023/05/07 11:05:30;;;;;;;0.10;0.10;;;20.80;95.60;;;;;;5060079;28;20978;-76
2023/05/07 11:07:57;;;;;;;0.10;0.10;;;20.50;94.80;;;;;;5051888;28;20064;-77
2023/05/07 11:10:22;;;;;;;;;;;20.40;96.00;;;;;;5059233;28;20687;-76
2023/05/07 11:12:50;;;;;;;0.17;0.15;;;20.20;94.70;;;;;;5054359;28;19986;-78
2023/05/07 11:15:37;;;;;;;0.10;0.10;;;20.10;97.30;;;;;;5059040;28;20827;-76
2023/05/07 11:18:03;;;;;;;0.10;0.10;;;20.30;96.70;;;;;;5039989;28;20024;-77
2023/05/07 11:20:48;;;;;;;0.00;0.00;;;20.30;95.60;;;;;;5050961;28;20029;-77
2023/05/07 11:23:33;;;;;;;0.00;0.00;;;20.00;93.90;;;;;;5048090;28;20039;-75
2023/05/07 11:26:09;;;;;;;0.00;0.00;;;20.30;92.80;;;;;;5054785;28;20818;-78
2023/05/07 11:28:39;;;;;;;0.00;0.00;;;20.90;92.60;;;;;;5048623;28;20116;-76
2023/05/07 11:31:05;;;;;;;0.00;0.00;;;21.70;93.00;;;;;;5052311;28;20037;-77
2023/05/07 11:33:32;;;;;;;0.00;0.00;;;22.40;91.40;;;;;;5051605;28;20048;-76
2023/05/07 11:35:59;;;;;;;0.00;0.00;;;22.20;90.50;;;;;;5055588;28;20778;-75
2023/05/07 11:38:25;;;;;;;0.10;0.10;;;21.50;90.70;;;;;;5063034;28;20021;-76
2023/05/07 11:40:51;;;;;;;0.20;0.20;;;21.60;87.30;;;;;;5061419;28;20044;-76
2023/05/07 11:43:17;;;;;;;2.33;0.40;;;21.50;87.00;;;;;;5056561;28;20017;-76
2023/05/07 11:45:43;;;;;;;0.13;0.13;;;22.20;91.00;;;;;;5062083;28;20024;-77
2023/05/07 11:48:08;;;;;;;0.00;0.00;;;22.50;85.30;;;;;;5061569;28;20559;-79
2023/05/07 11:50:34;;;;;;;0.00;0.00;;;22.80;86.30;;;;;;5056539;28;20147;-77
2023/05/07 11:53:00;;;;;;;0.00;0.00;;;23.40;90.20;;;;;;5052931;28;20771;-76
2023/05/07 11:55:26;;;;;;;0.80;0.40;;;22.40;88.90;;;;;;5043522;28;20025;-76
2023/05/07 11:57:52;;;;;;;0.00;0.00;;;21.50;91.50;;;;;;5061862;28;20067;-75
2023/05/07 12:00:18;;;;;;;0.00;0.00;;;21.60;93.30;;;;;;5043990;28;20906;-76
2023/05/07 12:02:45;;;;;;;0.10;0.10;;;21.20;92.80;;;;;;5056370;28;20045;-78
2023/05/07 12:05:12;;;;;;;1.77;1.10;;;21.30;95.10;;;;;;5063113;28;20037;-75
2023/05/07 12:07:37;;;;;;;0.35;0.35;;;21.30;95.50;;;;;;5063631;28;20075;-76
2023/05/07 12:10:06;;;;;;;0.10;0.10;;;21.30;92.90;;;;;;5065732;28;20822;-76
2023/05/07 12:12:44;;;;;;;0.38;0.38;;;21.10;92.30;;;;;;5054162;28;20028;-76
2023/05/07 12:15:10;;;;;;;0.20;0.20;;;21.00;92.50;;;;;;5059198;28;20033;-76
2023/05/07 12:17:36;;;;;;;0.00;0.00;;;20.50;90.80;;;;;;5062816;28;20115;-77
2023/05/07 12:20:02;;;;;;;;;;;20.70;91.40;;;;;;5057938;28;20031;-78
2023/05/07 12:22:28;;;;;;;0.13;0.13;;;21.10;89.10;;;;;;5050364;28;19916;-76
2023/05/07 12:24:57;;;;;;;0.00;0.00;;;21.60;90.00;;;;;;5046285;28;20685;-77
2023/05/07 12:27:23;;;;;;;2.92;0.43;;;21.60;84.70;;;;;;5049461;28;20325;-75
2023/05/07 12:29:50;;;;;;;0.00;0.00;;;20.60;90.50;;;;;;5054858;28;20792;-75
2023/05/07 12:32:22;;;;;;;0.20;0.20;;;19.90;91.60;;;;;;5063995;28;20398;-75
2023/05/07 12:34:51;;;;;;;2.53;0.75;;;19.50;92.30;;;;;;5066858;28;20117;-76
2023/05/07 12:37:23;;;;;;;0.52;0.52;;;18.60;95.50;;;;;;5065400;28;20031;-76
2023/05/07 12:39:49;;;;;;;0.32;0.30;;;16.40;99.90;;;;;;5057077;28;20484;-77
2023/05/07 12:42:16;;;;;;;0.00;0.00;;;15.60;99.90;;;;;;5057179;28;20102;-76
2023/05/07 12:44:45;;;;;;;0.00;0.00;;;15.30;99.90;;;;;;5039558;28;20047;-77
2023/05/07 12:47:12;;;;;;;0.00;0.00;;;15.40;99.90;;;;;;5059498;28;20025;-76